• Join FlightAware (Why Join?)
  • Login
  • US Flag 
09:20PM EDT


 

Airport Tracker/Info


-or-


 

Live Flight TrackerFlight Track Log ✈ N153RB ✈ 01-Feb-2014 ✈ KUOX - KLUL

Flight Track Log - Related Links

Times and Time Zones

All times are in EST time to prevent confusion due to time zone crossing. See the N153RB flight status page for this flight to view local times or setup timezone preferences in your user account.

Time Position Orientation Groundspeed Altitude Reporting Facility
EST Latitude Longitude Course Direction KTS MPH feet Rate Location/Type
09:40PM 34.3681 -89.4497 174° South 246 283 3,900  Level Memphis Center
09:41PM 34.3056 -89.4289 165° South 235 270 7,600 3,660 Climbing Memphis Center
09:42PM 34.2353 -89.4233 176° South 246 283 11,400 3,360 Climbing Memphis Center
09:43PM 34.1606 -89.4164 176° South 260 299 14,400 2,640 Climbing Memphis Center
09:44PM 34.0786 -89.4078 175° South 287 330 16,800 1,200 Climbing Memphis Center
09:45PM 33.7995 -89.4517 174° South  Level FlightAware Approximate
09:45PM 33.9814 -89.3981 175° South 339 390 16,900  Level Memphis Center
09:46PM 33.8733 -89.3881 176° South 378 435 16,900  Level Memphis Center
09:47PM 33.7700 -89.3767 175° South 385 443 16,900  Level Memphis Center
09:48PM 33.6633 -89.3658 175° South 386 444 16,900  Level Memphis Center
09:49PM 33.5553 -89.3558 176° South 389 448 16,900  Level Memphis Center
09:50PM 33.4253 -89.3428 175° South 391 450 16,900  Level Memphis Center
09:51PM 33.3175 -89.3319 175° South 390 449 16,900  Level Memphis Center
09:52PM 33.2106 -89.3225 176° South 385 443 16,900  Level Memphis Center
09:53PM 33.1036 -89.3114 175° South 385 443 16,900  Level Memphis Center
09:54PM 32.9969 -89.3006 175° South 385 443 17,000 -420 Climbing Memphis Center
09:55PM 32.8914 -89.2911 176° South 381 438 16,100 -900 Descending Memphis Center
09:56PM 32.7892 -89.2803 175° South 372 428 15,200 -900 Descending Memphis Center
09:57PM 32.6858 -89.2708 176° South 372 428 14,400 -840 Descending Memphis Center
09:58PM 32.5847 -89.2617 176° South 368 423 13,600 -900 Descending Memphis Center
09:59PM 32.4858 -89.2514 175° South 360 414 12,600 -1,080 Descending Memphis Center
10:00PM 32.3911 -89.2425 175° South 349 402 11,500 -1,080 Descending Memphis Center
10:01PM 32.3064 -89.2344 175° South 318 366 10,500 -1,020 Descending Memphis Center
10:02PM 32.2311 -89.2275 176° South 284 327 9,500 -960 Descending Memphis Center
10:03PM 32.1631 -89.2269 180° South 257 296 8,600 -900 Descending Memphis Center
10:04PM 32.1014 -89.2519 199° South 238 274 7,800 -900 Descending Memphis Center
10:05PM 32.0422 -89.2772 200° South 230 265 6,900 -900 Descending Memphis Center
10:06PM 31.9831 -89.3042 201° Southwest 229 264 6,000 -1,020 Descending Memphis Center
10:07PM 31.9286 -89.3264 199° South 218 251 4,900 -1,200 Descending Memphis Center
10:08PM 31.8633 -89.3525 199° South 210 242 3,600 -960 Descending Memphis Center
10:09PM 31.8158 -89.3719 199° South 208 239 3,000 -600 Descending Memphis Center
10:11PM 31.7274 -89.2501 130° Southeast  Level FlightAware Approximate
10:18PM 31.6730 -89.1728 140° Southeast  Level Estimated